createdAt,value
2022-11-19T00:00:11.390Z,993.19
2022-11-19T00:01:11.408Z,993.16
2022-11-19T00:02:11.489Z,993.23
2022-11-19T00:03:11.443Z,993.18
2022-11-19T00:04:11.461Z,993.16
2022-11-19T00:05:11.503Z,993.18
2022-11-19T00:06:11.493Z,993.2
2022-11-19T00:07:11.544Z,993.19
2022-11-19T00:08:11.527Z,993.17
2022-11-19T00:09:11.544Z,993.19
2022-11-19T00:10:11.561Z,993.19
2022-11-19T00:11:11.578Z,993.19
2022-11-19T00:12:11.595Z,993.19
2022-11-19T00:13:11.610Z,993.18
2022-11-19T00:14:11.633Z,993.2
2022-11-19T00:15:11.645Z,993.24
2022-11-19T00:16:11.665Z,993.27
2022-11-19T00:17:11.681Z,993.27
2022-11-19T00:18:11.697Z,993.31
2022-11-19T00:19:11.722Z,993.27
2022-11-19T00:20:11.735Z,993.3
2022-11-19T00:21:11.771Z,993.31
2022-11-19T00:22:11.767Z,993.3
2022-11-19T00:23:11.779Z,993.33
2022-11-19T00:24:11.804Z,993.29
2022-11-19T00:25:11.815Z,993.33
2022-11-19T00:26:11.836Z,993.31
2022-11-19T00:27:11.852Z,993.38
2022-11-19T00:28:11.869Z,993.38
2022-11-19T00:29:15.501Z,993.41
2022-11-19T00:30:26.003Z,993.44
2022-11-19T00:31:11.918Z,993.4
2022-11-19T00:32:11.938Z,993.45
2022-11-19T00:33:11.952Z,993.42
2022-11-19T00:34:11.970Z,993.47
2022-11-19T00:35:11.984Z,993.45
2022-11-19T00:36:12.001Z,993.45
2022-11-19T00:37:12.054Z,993.41
2022-11-19T00:38:12.036Z,993.44
2022-11-19T00:39:12.052Z,993.44
2022-11-19T00:40:12.072Z,993.49
2022-11-19T00:41:12.086Z,993.44
2022-11-19T00:42:12.107Z,993.53
2022-11-19T00:43:12.124Z,993.53
2022-11-19T00:44:12.138Z,993.47
2022-11-19T00:45:12.153Z,993.5
2022-11-19T00:46:12.171Z,993.45
2022-11-19T00:47:12.186Z,993.5
2022-11-19T00:48:12.207Z,993.47
2022-11-19T00:49:12.218Z,993.5
2022-11-19T00:50:12.237Z,993.49
2022-11-19T00:51:12.253Z,993.48
2022-11-19T00:52:12.271Z,993.48
2022-11-19T00:53:12.312Z,993.47
2022-11-19T00:54:12.304Z,993.47
2022-11-19T00:55:12.323Z,993.51
2022-11-19T00:56:12.337Z,993.49
2022-11-19T00:57:12.353Z,993.52
2022-11-19T00:58:12.369Z,993.53
2022-11-19T00:59:12.386Z,993.48
2022-11-19T01:00:12.406Z,993.49
2022-11-19T01:01:12.460Z,993.5
2022-11-19T01:02:12.434Z,993.55
2022-11-19T01:03:12.456Z,993.56
2022-11-19T01:04:12.469Z,993.53
2022-11-19T01:05:12.489Z,993.55
2022-11-19T01:06:16.423Z,993.56
2022-11-19T01:07:12.531Z,993.55
2022-11-19T01:08:12.534Z,993.58
2022-11-19T01:09:12.573Z,993.58
2022-11-19T01:10:12.576Z,993.57
2022-11-19T01:11:12.585Z,993.56
2022-11-19T01:12:12.604Z,993.63
2022-11-19T01:13:12.620Z,993.61
2022-11-19T01:14:12.639Z,993.66
2022-11-19T01:15:12.802Z,993.73
2022-11-19T01:16:12.665Z,993.7
2022-11-19T01:17:12.684Z,993.68
2022-11-19T01:18:12.698Z,993.68
2022-11-19T01:19:12.716Z,993.7
2022-11-19T01:20:12.755Z,993.66
2022-11-19T01:21:12.748Z,993.69
2022-11-19T01:22:12.917Z,993.69
2022-11-19T01:23:12.929Z,993.7
2022-11-19T01:24:12.993Z,993.73
2022-11-19T01:25:12.946Z,993.69
2022-11-19T01:26:12.877Z,993.72
2022-11-19T01:27:12.892Z,993.76
2022-11-19T01:28:12.914Z,993.72
2022-11-19T01:29:12.980Z,993.77
2022-11-19T01:30:12.894Z,993.73
2022-11-19T01:31:12.914Z,993.68
2022-11-19T01:32:12.922Z,993.71
2022-11-19T01:33:12.948Z,993.71
2022-11-19T01:34:12.965Z,993.7
2022-11-19T01:35:12.974Z,993.71
2022-11-19T01:36:12.987Z,993.71
2022-11-19T01:37:13.009Z,993.69
2022-11-19T01:38:13.023Z,993.67
2022-11-19T01:39:13.040Z,993.66
2022-11-19T01:40:13.055Z,993.68
2022-11-19T01:41:13.221Z,993.7
2022-11-19T01:42:13.088Z,993.68
2022-11-19T01:43:13.108Z,993.71
2022-11-19T01:44:13.122Z,993.69
2022-11-19T01:45:13.140Z,993.68
2022-11-19T01:46:13.152Z,993.75
2022-11-19T01:47:13.167Z,993.77
2022-11-19T01:48:13.192Z,993.77
2022-11-19T01:49:13.204Z,993.82
2022-11-19T01:50:13.218Z,993.81
2022-11-19T01:51:13.234Z,993.81
2022-11-19T01:52:13.250Z,993.81
2022-11-19T01:53:13.269Z,993.85
2022-11-19T01:54:13.283Z,993.87
2022-11-19T01:55:13.298Z,993.87
2022-11-19T01:56:13.313Z,993.87
2022-11-19T01:57:13.354Z,993.88
2022-11-19T01:58:13.342Z,993.91
2022-11-19T01:59:13.362Z,993.91
2022-11-19T02:00:13.383Z,993.93
2022-11-19T02:01:13.449Z,993.89
2022-11-19T02:02:13.409Z,993.96
2022-11-19T02:03:13.420Z,993.98
2022-11-19T02:04:13.444Z,993.94
2022-11-19T02:05:13.462Z,993.97
2022-11-19T02:06:13.477Z,993.96
2022-11-19T02:07:13.523Z,993.99
2022-11-19T02:08:13.507Z,994.05
2022-11-19T02:09:13.519Z,994.07
2022-11-19T02:10:13.540Z,994.01
2022-11-19T02:11:13.602Z,994.01
2022-11-19T02:12:13.572Z,994.06
2022-11-19T02:13:13.612Z,994.06
2022-11-19T02:14:13.652Z,994.07
2022-11-19T02:15:13.620Z,994.02
2022-11-19T02:16:13.634Z,994.06
2022-11-19T02:17:13.649Z,994.05
2022-11-19T02:18:13.667Z,994.02
2022-11-19T02:19:13.682Z,994.06
2022-11-19T02:20:13.703Z,994.05
2022-11-19T02:21:13.712Z,994.03
2022-11-19T02:22:13.735Z,994.02
2022-11-19T02:23:13.745Z,994.04
2022-11-19T02:24:13.765Z,994.05
2022-11-19T02:25:13.780Z,994.06
2022-11-19T02:26:13.794Z,994.05
2022-11-19T02:27:13.810Z,994.07
2022-11-19T02:28:13.833Z,994.1
2022-11-19T02:29:13.870Z,994.05
2022-11-19T02:30:13.863Z,994.04
2022-11-19T02:31:13.877Z,994.11
2022-11-19T02:32:13.891Z,994.11
2022-11-19T02:33:13.906Z,994.1
2022-11-19T02:34:13.923Z,994.13
2022-11-19T02:35:13.941Z,994.16
2022-11-19T02:36:13.959Z,994.15
2022-11-19T02:37:13.971Z,994.13
2022-11-19T02:38:13.987Z,994.12
2022-11-19T02:39:14.003Z,994.12
2022-11-19T02:40:14.025Z,994.13
2022-11-19T02:41:14.041Z,994.12
2022-11-19T02:42:14.051Z,994.16
2022-11-19T02:43:14.068Z,994.17
2022-11-19T02:44:14.095Z,994.14
2022-11-19T02:45:14.131Z,994.12
2022-11-19T02:46:14.117Z,994.17
2022-11-19T02:47:14.133Z,994.2
2022-11-19T02:48:14.153Z,994.25
2022-11-19T02:49:14.170Z,994.24
2022-11-19T02:50:14.185Z,994.25
2022-11-19T02:51:14.203Z,994.22
2022-11-19T02:52:14.211Z,994.19
2022-11-19T02:53:14.234Z,994.21
2022-11-19T02:54:14.248Z,994.17
2022-11-19T02:55:14.269Z,994.17
2022-11-19T02:56:14.287Z,994.16
2022-11-19T02:57:14.294Z,994.15
2022-11-19T02:58:14.314Z,994.19
2022-11-19T02:59:14.326Z,994.22
2022-11-19T03:00:14.344Z,994.2
2022-11-19T03:01:14.553Z,994.28
2022-11-19T03:02:14.373Z,994.25
2022-11-19T03:03:14.393Z,994.22
2022-11-19T03:04:14.406Z,994.26
2022-11-19T03:05:14.424Z,994.26
2022-11-19T03:06:14.588Z,994.23
2022-11-19T03:07:14.488Z,994.21
2022-11-19T03:08:14.471Z,994.17
2022-11-19T03:09:14.488Z,994.16
2022-11-19T03:10:14.502Z,994.22
2022-11-19T03:11:14.617Z,994.22
2022-11-19T03:12:14.535Z,994.2
2022-11-19T03:13:14.551Z,994.24
2022-11-19T03:14:14.564Z,994.22
2022-11-19T03:15:14.584Z,994.21
2022-11-19T03:16:14.645Z,994.19
2022-11-19T03:17:14.640Z,994.22
2022-11-19T03:18:14.628Z,994.23
2022-11-19T03:19:14.645Z,994.22
2022-11-19T03:20:14.660Z,994.3
2022-11-19T03:21:14.673Z,994.28
2022-11-19T03:22:14.692Z,994.31
2022-11-19T03:23:14.712Z,994.37
2022-11-19T03:24:14.723Z,994.38
2022-11-19T03:25:14.737Z,994.33
2022-11-19T03:26:14.751Z,994.31
2022-11-19T03:27:14.780Z,994.3
2022-11-19T03:28:14.779Z,994.26
2022-11-19T03:29:14.804Z,994.28
2022-11-19T03:30:14.816Z,994.27
2022-11-19T03:31:14.834Z,994.27
2022-11-19T03:32:14.849Z,994.24
2022-11-19T03:33:14.890Z,994.23
2022-11-19T03:34:14.880Z,994.26
2022-11-19T03:35:14.895Z,994.22
2022-11-19T03:36:14.915Z,994.21
2022-11-19T03:37:14.929Z,994.25
2022-11-19T03:38:14.956Z,994.2
2022-11-19T03:39:14.959Z,994.26
2022-11-19T03:40:14.980Z,994.27
2022-11-19T03:41:14.985Z,994.27
2022-11-19T03:42:15.006Z,994.34
2022-11-19T03:43:15.029Z,994.33
2022-11-19T03:44:15.037Z,994.35
2022-11-19T03:45:15.056Z,994.36
2022-11-19T03:46:15.066Z,994.35
2022-11-19T03:47:15.085Z,994.29
2022-11-19T03:48:15.106Z,994.35
2022-11-19T03:49:15.144Z,994.34
2022-11-19T03:50:15.131Z,994.34
2022-11-19T03:51:15.144Z,994.35
2022-11-19T03:52:15.165Z,994.37
2022-11-19T03:53:15.226Z,994.41
2022-11-19T03:54:15.200Z,994.34
2022-11-19T03:55:15.210Z,994.36
2022-11-19T03:56:15.422Z,994.39
2022-11-19T03:57:15.242Z,994.41
2022-11-19T03:58:15.264Z,994.41
2022-11-19T03:59:15.275Z,994.38
2022-11-19T04:00:15.288Z,994.41
2022-11-19T04:01:15.463Z,994.38
2022-11-19T04:02:15.320Z,994.37
2022-11-19T04:03:15.334Z,994.34
2022-11-19T04:04:15.353Z,994.33
2022-11-19T04:05:15.392Z,994.35
2022-11-19T04:06:15.378Z,994.36
2022-11-19T04:07:15.450Z,994.39
2022-11-19T04:08:15.416Z,994.41
2022-11-19T04:09:15.428Z,994.4
2022-11-19T04:10:15.444Z,994.52
2022-11-19T04:11:15.455Z,994.52
2022-11-19T04:12:15.479Z,994.53
2022-11-19T04:13:15.489Z,994.56
2022-11-19T04:14:15.512Z,994.54
2022-11-19T04:15:15.520Z,994.53
2022-11-19T04:16:15.541Z,994.6
2022-11-19T04:17:15.556Z,994.54
2022-11-19T04:18:15.569Z,994.56
2022-11-19T04:19:15.582Z,994.6
2022-11-19T04:20:15.601Z,994.6
2022-11-19T04:21:15.632Z,994.58
2022-11-19T04:22:15.628Z,994.59
2022-11-19T04:23:15.645Z,994.59
2022-11-19T04:24:15.663Z,994.57
2022-11-19T04:25:15.675Z,994.61
2022-11-19T04:26:15.687Z,994.59
2022-11-19T04:27:15.710Z,994.59
2022-11-19T04:28:15.724Z,994.57
2022-11-19T04:29:15.743Z,994.61
2022-11-19T04:30:15.753Z,994.6
2022-11-19T04:31:17.955Z,994.63
2022-11-19T04:32:15.785Z,994.6
2022-11-19T04:33:15.801Z,994.64
2022-11-19T04:34:15.816Z,994.6
2022-11-19T04:35:15.831Z,994.66
2022-11-19T04:36:15.844Z,994.61
2022-11-19T04:37:15.893Z,994.62
2022-11-19T04:38:15.878Z,994.64
2022-11-19T04:39:15.897Z,994.66
2022-11-19T04:40:15.911Z,994.67
2022-11-19T04:41:15.932Z,994.64
2022-11-19T04:42:15.942Z,994.62
2022-11-19T04:43:15.959Z,994.64
2022-11-19T04:44:15.972Z,994.64
2022-11-19T04:45:15.988Z,994.69
2022-11-19T04:46:16.002Z,994.73
2022-11-19T04:47:16.020Z,994.73
2022-11-19T04:48:16.035Z,994.71
2022-11-19T04:49:16.052Z,994.75
2022-11-19T04:50:16.061Z,994.75
2022-11-19T04:51:16.081Z,994.76
2022-11-19T04:52:16.095Z,994.77
2022-11-19T04:53:16.140Z,994.75
2022-11-19T04:54:16.124Z,994.75
2022-11-19T04:55:16.142Z,994.77
2022-11-19T04:56:16.209Z,994.75
2022-11-19T04:57:16.172Z,994.76
2022-11-19T04:58:16.187Z,994.75
2022-11-19T04:59:16.229Z,994.8
2022-11-19T05:00:16.217Z,994.86
2022-11-19T05:01:16.252Z,994.82
2022-11-19T05:02:16.266Z,994.86
2022-11-19T05:03:16.266Z,994.87
2022-11-19T05:04:16.280Z,994.87
2022-11-19T05:05:16.294Z,994.9
2022-11-19T05:06:16.314Z,994.92
2022-11-19T05:07:16.367Z,994.9
2022-11-19T05:08:16.344Z,994.92
2022-11-19T05:09:16.683Z,994.9
2022-11-19T05:10:16.371Z,994.86
2022-11-19T05:11:16.386Z,994.89
2022-11-19T05:12:16.403Z,994.87
2022-11-19T05:13:16.419Z,994.87
2022-11-19T05:14:16.433Z,994.9
2022-11-19T05:15:16.451Z,994.87
2022-11-19T05:16:16.465Z,994.86
2022-11-19T05:17:16.483Z,994.87
2022-11-19T05:18:16.496Z,994.9
2022-11-19T05:19:16.627Z,994.93
2022-11-19T05:20:16.527Z,994.86
2022-11-19T05:21:16.538Z,994.9
2022-11-19T05:22:16.563Z,994.96
2022-11-19T05:23:16.572Z,994.98
2022-11-19T05:24:16.590Z,995.02
2022-11-19T05:25:16.631Z,994.98
2022-11-19T05:26:16.623Z,995.02
2022-11-19T05:27:16.635Z,995.07
2022-11-19T05:28:16.650Z,995.04
2022-11-19T05:29:16.844Z,995.02
2022-11-19T05:30:16.683Z,995.07
2022-11-19T05:31:16.692Z,995.11
2022-11-19T05:32:16.713Z,995.13
2022-11-19T05:33:16.726Z,995.12
2022-11-19T05:34:16.743Z,995.11
2022-11-19T05:35:16.755Z,995.15
2022-11-19T05:36:16.777Z,995.14
2022-11-19T05:37:16.784Z,995.09
2022-11-19T05:38:16.809Z,995.07
2022-11-19T05:39:21.789Z,995.07
2022-11-19T05:40:16.833Z,995.06
2022-11-19T05:41:16.870Z,995.06
2022-11-19T05:42:16.864Z,995.03
2022-11-19T05:43:16.880Z,995.02
2022-11-19T05:44:16.893Z,995.04
2022-11-19T05:45:16.911Z,995.09
2022-11-19T05:46:16.921Z,995.01
2022-11-19T05:47:16.939Z,995.05
2022-11-19T05:48:16.954Z,995.04
2022-11-19T05:49:17.222Z,995.06
2022-11-19T05:50:16.984Z,995.05
2022-11-19T05:51:16.996Z,995.09
2022-11-19T05:52:17.016Z,995.11
2022-11-19T05:53:17.032Z,995.12
2022-11-19T05:54:17.091Z,995.14
2022-11-19T05:55:17.060Z,995.2
2022-11-19T05:56:17.076Z,995.21
2022-11-19T05:57:17.163Z,995.15
2022-11-19T05:58:17.105Z,995.22
2022-11-19T05:59:17.546Z,995.2
2022-11-19T06:00:17.135Z,995.19
2022-11-19T06:01:17.149Z,995.15
2022-11-19T06:02:17.169Z,995.21
2022-11-19T06:03:17.237Z,995.23
2022-11-19T06:04:17.199Z,995.27
2022-11-19T06:05:17.215Z,995.21
2022-11-19T06:06:17.226Z,995.27
2022-11-19T06:07:17.310Z,995.26
2022-11-19T06:08:17.263Z,995.28
2022-11-19T06:09:17.646Z,995.28
2022-11-19T06:10:17.291Z,995.28
2022-11-19T06:11:17.299Z,995.28
2022-11-19T06:12:17.318Z,995.25
2022-11-19T06:13:17.359Z,995.32
2022-11-19T06:14:17.352Z,995.28
2022-11-19T06:15:17.367Z,995.33
2022-11-19T06:16:17.372Z,995.32
2022-11-19T06:17:17.395Z,995.37
2022-11-19T06:18:17.410Z,995.38
2022-11-19T06:19:17.743Z,995.42
2022-11-19T06:20:17.440Z,995.47
2022-11-19T06:21:17.455Z,995.47
2022-11-19T06:22:17.468Z,995.48
2022-11-19T06:23:17.487Z,995.51
2022-11-19T06:24:17.502Z,995.56
2022-11-19T06:25:17.519Z,995.53
2022-11-19T06:26:17.532Z,995.6
2022-11-19T06:27:17.547Z,995.55
2022-11-19T06:28:17.561Z,995.58
2022-11-19T06:29:17.939Z,995.54
2022-11-19T06:30:17.589Z,995.56
2022-11-19T06:31:17.606Z,995.57
2022-11-19T06:32:17.619Z,995.58
2022-11-19T06:33:17.639Z,995.62
2022-11-19T06:34:17.651Z,995.61
2022-11-19T06:35:17.667Z,995.69
2022-11-19T06:36:17.679Z,995.71
2022-11-19T06:37:17.697Z,995.69
2022-11-19T06:38:17.714Z,995.71
2022-11-19T06:39:17.939Z,995.75
2022-11-19T06:40:17.740Z,995.75
2022-11-19T06:41:17.757Z,995.74
2022-11-19T06:42:17.769Z,995.79
2022-11-19T06:43:17.788Z,995.79
2022-11-19T06:44:17.801Z,995.82
2022-11-19T06:45:17.846Z,995.8
2022-11-19T06:46:17.832Z,995.87
2022-11-19T06:47:17.847Z,995.84
2022-11-19T06:48:17.863Z,995.88
2022-11-19T06:49:20.246Z,995.88
2022-11-19T06:50:17.891Z,995.87
2022-11-19T06:51:18.206Z,995.87
2022-11-19T06:52:17.923Z,995.87
2022-11-19T06:53:17.940Z,995.87
2022-11-19T06:54:17.952Z,995.88
2022-11-19T06:55:17.967Z,995.85
2022-11-19T06:56:17.980Z,995.9
2022-11-19T06:57:17.997Z,995.86
2022-11-19T06:58:18.011Z,995.89
2022-11-19T06:59:18.233Z,995.88
2022-11-19T07:00:18.041Z,995.93
2022-11-19T07:01:18.154Z,995.9
2022-11-19T07:02:21.360Z,995.91
2022-11-19T07:03:18.088Z,995.95
2022-11-19T07:04:18.107Z,995.99
2022-11-19T07:05:18.119Z,995.98
2022-11-19T07:06:18.133Z,995.94
2022-11-19T07:07:18.170Z,995.95
2022-11-19T07:08:18.166Z,995.94
2022-11-19T07:09:18.433Z,995.94
2022-11-19T07:10:18.194Z,995.96
2022-11-19T07:11:18.209Z,995.95
2022-11-19T07:12:18.225Z,995.99
2022-11-19T07:13:18.238Z,996.01
2022-11-19T07:14:18.254Z,996.06
2022-11-19T07:15:18.268Z,996.04
2022-11-19T07:16:18.284Z,996.03
2022-11-19T07:17:18.323Z,996.05
2022-11-19T07:18:18.315Z,996.04
2022-11-19T07:19:18.594Z,996.1
2022-11-19T07:20:18.347Z,996.11
2022-11-19T07:21:18.356Z,996.13
2022-11-19T07:22:18.377Z,996.16
2022-11-19T07:23:18.388Z,996.19
2022-11-19T07:24:18.404Z,996.16
2022-11-19T07:25:18.418Z,996.16
2022-11-19T07:26:18.435Z,996.16
2022-11-19T07:27:18.449Z,996.17
2022-11-19T07:28:18.467Z,996.16
2022-11-19T07:29:18.733Z,996.16
2022-11-19T07:30:18.501Z,996.17
2022-11-19T07:31:18.509Z,996.19
2022-11-19T07:32:18.524Z,996.21
2022-11-19T07:33:18.576Z,996.22
2022-11-19T07:34:18.557Z,996.24
2022-11-19T07:35:18.570Z,996.24
2022-11-19T07:36:18.848Z,996.28
2022-11-19T07:37:18.597Z,996.25
2022-11-19T07:38:18.613Z,996.26
2022-11-19T07:39:18.887Z,996.31
2022-11-19T07:40:18.646Z,996.33
2022-11-19T07:41:18.660Z,996.34
2022-11-19T07:42:18.673Z,996.35
2022-11-19T07:43:18.686Z,996.34
2022-11-19T07:44:18.704Z,996.34
2022-11-19T07:45:18.719Z,996.33
2022-11-19T07:46:18.736Z,996.35
2022-11-19T07:47:18.748Z,996.37
2022-11-19T07:48:18.763Z,996.38
2022-11-19T07:49:19.154Z,996.35
2022-11-19T07:50:18.791Z,996.4
2022-11-19T07:51:18.857Z,996.35
2022-11-19T07:52:18.820Z,996.36
2022-11-19T07:53:18.839Z,996.38
2022-11-19T07:54:18.852Z,996.38
2022-11-19T07:55:18.868Z,996.4
2022-11-19T07:56:18.882Z,996.44
2022-11-19T07:57:18.899Z,996.44
2022-11-19T07:58:18.910Z,996.48
2022-11-19T07:59:19.161Z,996.56
2022-11-19T08:00:18.940Z,996.55
2022-11-19T08:01:19.054Z,996.57
2022-11-19T08:02:18.974Z,996.6
2022-11-19T08:03:18.988Z,996.54
2022-11-19T08:04:19.005Z,996.56
2022-11-19T08:05:19.041Z,996.56
2022-11-19T08:06:19.033Z,996.59
2022-11-19T08:07:19.072Z,996.64
2022-11-19T08:08:19.060Z,996.61
2022-11-19T08:09:19.202Z,996.62
2022-11-19T08:10:19.092Z,996.66
2022-11-19T08:11:19.107Z,996.69
2022-11-19T08:12:19.121Z,996.67
2022-11-19T08:13:19.137Z,996.71
2022-11-19T08:14:19.152Z,996.68
2022-11-19T08:15:19.168Z,996.68
2022-11-19T08:16:19.183Z,996.65
2022-11-19T08:17:19.201Z,996.71
2022-11-19T08:18:19.210Z,996.68
2022-11-19T08:19:19.614Z,996.68
2022-11-19T08:20:19.239Z,996.67
2022-11-19T08:21:19.286Z,996.67
2022-11-19T08:22:19.271Z,996.69
2022-11-19T08:23:19.289Z,996.69
2022-11-19T08:24:19.650Z,996.67
2022-11-19T08:25:19.316Z,996.67
2022-11-19T08:26:19.328Z,996.74
2022-11-19T08:27:19.345Z,996.75
2022-11-19T08:28:19.359Z,996.69
2022-11-19T08:29:19.375Z,996.76
2022-11-19T08:30:19.392Z,996.72
2022-11-19T08:31:19.405Z,996.71
2022-11-19T08:32:19.419Z,996.73
2022-11-19T08:33:19.435Z,996.75
2022-11-19T08:34:19.760Z,996.76
2022-11-19T08:35:19.466Z,996.77
2022-11-19T08:36:19.485Z,996.75
2022-11-19T08:37:19.527Z,996.75
2022-11-19T08:38:19.510Z,996.8
2022-11-19T08:39:19.527Z,996.75
2022-11-19T08:40:19.539Z,996.83
2022-11-19T08:41:19.561Z,996.79
2022-11-19T08:42:19.572Z,996.81
2022-11-19T08:43:19.586Z,996.78
2022-11-19T08:44:19.898Z,996.81
2022-11-19T08:45:20.994Z,996.82
2022-11-19T08:46:19.629Z,996.78
2022-11-19T08:47:19.643Z,996.78
2022-11-19T08:48:19.669Z,996.8
2022-11-19T08:49:19.683Z,996.82
2022-11-19T08:50:19.693Z,996.8
2022-11-19T08:51:19.756Z,996.82
2022-11-19T08:52:19.720Z,996.82
2022-11-19T08:53:19.762Z,996.85
2022-11-19T08:54:19.965Z,996.85
2022-11-19T08:55:19.766Z,996.85
2022-11-19T08:56:19.781Z,996.87
2022-11-19T08:57:19.793Z,996.84
2022-11-19T08:58:19.808Z,996.87
2022-11-19T08:59:20.089Z,996.9
2022-11-19T09:00:19.842Z,996.87
2022-11-19T09:01:19.902Z,996.9
2022-11-19T09:02:19.870Z,996.91
2022-11-19T09:03:19.884Z,996.95
2022-11-19T09:04:20.212Z,996.96
2022-11-19T09:05:19.913Z,996.97
2022-11-19T09:06:19.930Z,996.96
2022-11-19T09:07:19.977Z,997
2022-11-19T09:08:19.957Z,996.96
2022-11-19T09:09:20.000Z,996.86
2022-11-19T09:10:19.997Z,996.91
2022-11-19T09:11:20.006Z,996.95
2022-11-19T09:12:20.020Z,996.96
2022-11-19T09:13:20.033Z,996.97
2022-11-19T09:14:20.280Z,996.96
2022-11-19T09:15:20.062Z,997
2022-11-19T09:16:20.078Z,996.95
2022-11-19T09:17:20.092Z,996.96
2022-11-19T09:18:20.108Z,996.94
2022-11-19T09:19:20.124Z,996.91
2022-11-19T09:20:20.141Z,996.87
2022-11-19T09:21:20.151Z,996.89
2022-11-19T09:22:20.169Z,996.84
2022-11-19T09:23:20.182Z,996.86
2022-11-19T09:24:20.306Z,996.87
2022-11-19T09:25:20.235Z,996.87
2022-11-19T09:26:20.227Z,996.85
2022-11-19T09:27:20.242Z,996.9
2022-11-19T09:28:20.260Z,996.91
2022-11-19T09:29:20.277Z,996.95
2022-11-19T09:30:20.293Z,996.92
2022-11-19T09:31:20.310Z,996.92
2022-11-19T09:32:25.115Z,996.99
2022-11-19T09:33:20.330Z,996.99
2022-11-19T09:34:20.624Z,996.95
2022-11-19T09:35:20.363Z,996.98
2022-11-19T09:36:20.376Z,996.95
2022-11-19T09:37:20.392Z,997
2022-11-19T09:38:20.408Z,996.99
2022-11-19T09:39:20.421Z,997.02
2022-11-19T09:40:20.569Z,997.03
2022-11-19T09:41:20.554Z,997.07
2022-11-19T09:42:20.467Z,996.97
2022-11-19T09:43:20.480Z,997.01
2022-11-19T09:44:20.704Z,996.99
2022-11-19T09:45:20.512Z,996.97
2022-11-19T09:46:20.527Z,997.02
2022-11-19T09:47:20.539Z,997.02
2022-11-19T09:48:20.554Z,997.02
2022-11-19T09:49:20.571Z,997.04
2022-11-19T09:50:20.700Z,997.1
2022-11-19T09:51:20.901Z,997.12
2022-11-19T09:52:20.617Z,997.07
2022-11-19T09:53:20.630Z,997.14
2022-11-19T09:54:20.954Z,997.09
2022-11-19T09:55:20.658Z,997.07
2022-11-19T09:56:20.673Z,997.07
2022-11-19T09:57:20.721Z,997.02
2022-11-19T09:58:20.702Z,997.02
2022-11-19T09:59:20.721Z,997.07
2022-11-19T10:00:20.731Z,997.03
2022-11-19T10:01:20.751Z,997.08
2022-11-19T10:02:20.777Z,997.05
2022-11-19T10:03:20.844Z,997.08
2022-11-19T10:04:21.053Z,997.09
2022-11-19T10:05:20.810Z,997.14
2022-11-19T10:06:20.821Z,997.08
2022-11-19T10:07:20.898Z,997.08
2022-11-19T10:08:20.855Z,997.09
2022-11-19T10:09:20.870Z,997.08
2022-11-19T10:10:20.882Z,997.09
2022-11-19T10:11:20.900Z,997.13
2022-11-19T10:12:20.911Z,997.18
2022-11-19T10:13:20.956Z,997.08
2022-11-19T10:14:21.289Z,997.09
2022-11-19T10:15:21.101Z,997.05
2022-11-19T10:16:20.974Z,997.01
2022-11-19T10:17:20.989Z,997.03
2022-11-19T10:18:21.004Z,996.97
2022-11-19T10:19:21.043Z,997.03
2022-11-19T10:20:21.030Z,997
2022-11-19T10:21:21.048Z,996.95
2022-11-19T10:22:21.061Z,996.99
2022-11-19T10:23:21.076Z,996.95
2022-11-19T10:24:21.403Z,997
2022-11-19T10:25:21.141Z,996.97
2022-11-19T10:26:21.123Z,997.01
2022-11-19T10:27:21.133Z,996.99
2022-11-19T10:28:21.154Z,996.99
2022-11-19T10:29:21.491Z,996.98
2022-11-19T10:30:21.186Z,996.99
2022-11-19T10:31:21.199Z,996.97
2022-11-19T10:32:21.210Z,996.98
2022-11-19T10:33:21.225Z,996.97
2022-11-19T10:34:21.246Z,996.95
2022-11-19T10:35:21.286Z,996.99
2022-11-19T10:36:21.278Z,997.01
2022-11-19T10:37:21.286Z,997
2022-11-19T10:38:21.301Z,997
2022-11-19T10:39:21.755Z,997.01
2022-11-19T10:40:21.331Z,996.98
2022-11-19T10:41:21.344Z,996.98
2022-11-19T10:42:21.362Z,996.97
2022-11-19T10:43:23.270Z,996.97
2022-11-19T10:44:21.689Z,996.98
2022-11-19T10:45:21.476Z,997
2022-11-19T10:46:21.418Z,997.01
2022-11-19T10:47:21.434Z,996.95
2022-11-19T10:48:21.451Z,996.96
2022-11-19T10:49:21.621Z,996.98
2022-11-19T10:50:21.481Z,996.98
2022-11-19T10:51:21.544Z,997.04
2022-11-19T10:52:21.508Z,997.05
2022-11-19T10:53:21.521Z,997.01
2022-11-19T10:54:21.544Z,996.99
2022-11-19T10:55:21.577Z,997.01
2022-11-19T10:56:21.568Z,997.01
2022-11-19T10:57:21.582Z,997.01
2022-11-19T10:58:21.599Z,996.99
2022-11-19T10:59:21.891Z,997
2022-11-19T11:00:21.628Z,996.97
2022-11-19T11:01:21.710Z,996.99
2022-11-19T11:02:26.600Z,996.99
2022-11-19T11:03:21.674Z,996.99
2022-11-19T11:04:21.686Z,996.98
2022-11-19T11:05:21.699Z,997.01
2022-11-19T11:06:21.721Z,996.9
2022-11-19T11:07:21.759Z,996.96
2022-11-19T11:08:21.748Z,996.92
2022-11-19T11:09:21.946Z,996.94
2022-11-19T11:10:21.776Z,996.92
2022-11-19T11:11:21.787Z,996.89
2022-11-19T11:12:21.808Z,996.88
2022-11-19T11:13:21.814Z,996.86
2022-11-19T11:14:21.840Z,996.86
2022-11-19T11:15:21.854Z,996.83
2022-11-19T11:16:21.869Z,996.85
2022-11-19T11:17:21.908Z,996.86
2022-11-19T11:18:21.897Z,996.83
2022-11-19T11:19:22.391Z,996.9
2022-11-19T11:20:21.924Z,996.84
2022-11-19T11:21:21.941Z,996.88
2022-11-19T11:22:21.955Z,996.83
2022-11-19T11:23:21.968Z,996.86
2022-11-19T11:24:21.992Z,996.82
2022-11-19T11:25:22.007Z,996.86
2022-11-19T11:26:22.012Z,996.78
2022-11-19T11:27:22.034Z,996.75
2022-11-19T11:28:22.043Z,996.79
2022-11-19T11:29:22.138Z,996.77
2022-11-19T11:30:22.076Z,996.75
2022-11-19T11:31:22.088Z,996.78
2022-11-19T11:32:22.097Z,996.81
2022-11-19T11:33:22.146Z,996.78
2022-11-19T11:34:22.134Z,996.77
2022-11-19T11:35:22.148Z,996.74
2022-11-19T11:36:22.162Z,996.77
2022-11-19T11:37:22.178Z,996.72
2022-11-19T11:38:22.189Z,996.73
2022-11-19T11:39:22.295Z,996.75
2022-11-19T11:40:22.218Z,996.74
2022-11-19T11:42:22.251Z,996.66
2022-11-19T11:43:22.265Z,996.68
2022-11-19T11:44:22.277Z,996.63
2022-11-19T11:45:23.317Z,996.65
2022-11-19T11:46:22.311Z,996.64
2022-11-19T11:47:22.331Z,996.63
2022-11-19T11:48:22.340Z,996.61
2022-11-19T11:49:22.566Z,996.58
2022-11-19T11:50:22.369Z,996.57
2022-11-19T11:51:22.688Z,996.61
2022-11-19T11:52:22.400Z,996.6
2022-11-19T11:53:22.415Z,996.63
2022-11-19T11:54:22.429Z,996.64
2022-11-19T11:55:22.443Z,996.64
2022-11-19T11:56:22.461Z,996.58
2022-11-19T11:57:22.478Z,996.59
2022-11-19T11:58:22.492Z,996.57
2022-11-19T11:59:22.650Z,996.61
2022-11-19T12:00:22.520Z,996.59
2022-11-19T12:01:22.546Z,996.57
2022-11-19T12:02:22.593Z,996.59
2022-11-19T12:03:22.568Z,996.55
2022-11-19T12:04:22.579Z,996.59
2022-11-19T12:05:22.621Z,996.58
2022-11-19T12:06:22.607Z,996.63
2022-11-19T12:07:22.689Z,996.59
2022-11-19T12:08:26.645Z,996.61
2022-11-19T12:09:22.823Z,996.62
2022-11-19T12:10:22.667Z,996.63
2022-11-19T12:11:22.681Z,996.6
2022-11-19T12:12:22.696Z,996.61
2022-11-19T12:13:22.713Z,996.63
2022-11-19T12:14:22.730Z,996.66
2022-11-19T12:15:22.742Z,996.63
2022-11-19T12:16:22.759Z,996.63
2022-11-19T12:17:22.772Z,996.63
2022-11-19T12:18:22.787Z,996.63
2022-11-19T12:19:22.909Z,996.6
2022-11-19T12:20:22.820Z,996.56
2022-11-19T12:21:22.854Z,996.62
2022-11-19T12:22:22.848Z,996.64
2022-11-19T12:23:22.861Z,996.61
2022-11-19T12:24:22.878Z,996.59
2022-11-19T12:25:22.895Z,996.6
2022-11-19T12:26:22.907Z,996.6
2022-11-19T12:27:22.918Z,996.6
2022-11-19T12:28:22.938Z,996.62
2022-11-19T12:29:23.179Z,996.61
2022-11-19T12:30:22.965Z,996.65
2022-11-19T12:31:26.194Z,996.63
2022-11-19T12:32:23.000Z,996.67